createdAt,value
2023-03-01T00:00:39.551Z,8.03
2023-03-01T00:03:42.262Z,7.87
2023-03-01T00:06:47.256Z,7.62
2023-03-01T00:09:50.620Z,8.40
2023-03-01T00:12:53.134Z,7.45
2023-03-01T00:15:55.439Z,7.37
2023-03-01T00:18:58.883Z,8.20
2023-03-01T00:22:01.168Z,8.38
2023-03-01T00:25:03.779Z,8.68
2023-03-01T00:28:05.939Z,8.10
2023-03-01T00:31:11.959Z,8.43
2023-03-01T00:34:14.530Z,8.10
2023-03-01T00:37:16.917Z,6.87
2023-03-01T00:40:21.633Z,5.80
2023-03-01T00:43:24.162Z,7.40
2023-03-01T00:46:28.163Z,4.47
2023-03-01T00:49:30.647Z,8.17
2023-03-01T00:52:32.921Z,8.50
2023-03-01T00:55:35.082Z,7.97
2023-03-01T00:58:37.373Z,5.87
2023-03-01T01:01:40.254Z,8.70
2023-03-01T01:04:42.551Z,7.70
2023-03-01T01:07:44.633Z,8.93
2023-03-01T01:10:48.328Z,8.02
2023-03-01T01:13:50.944Z,9.43
2023-03-01T01:16:53.078Z,7.37
2023-03-01T01:19:55.426Z,8.83
2023-03-01T01:22:58.080Z,7.93
2023-03-01T01:26:06.092Z,6.97
2023-03-01T01:29:09.534Z,8.40
2023-03-01T01:32:12.074Z,7.23
2023-03-01T01:35:14.107Z,7.27
2023-03-01T01:38:16.223Z,5.65
2023-03-01T01:41:19.378Z,6.78
2023-03-01T01:44:21.494Z,6.82
2023-03-01T01:47:24.471Z,7.10
2023-03-01T01:50:27.577Z,7.57
2023-03-01T01:53:30.252Z,8.07
2023-03-01T01:56:32.579Z,7.32
2023-03-01T01:59:35.619Z,8.13
2023-03-01T02:02:39.258Z,6.13
2023-03-01T02:06:18.247Z,7.60
2023-03-01T02:09:23.096Z,7.68
2023-03-01T02:12:26.915Z,8.43
2023-03-01T02:15:34.187Z,6.35
2023-03-01T02:18:36.552Z,8.33
2023-03-01T02:21:43.888Z,7.43
2023-03-01T02:25:07.259Z,8.90
2023-03-01T02:28:15.072Z,5.43
2023-03-01T02:31:38.711Z,5.57
2023-03-01T02:34:41.052Z,3.43
2023-03-01T02:37:44.508Z,6.67
2023-03-01T02:40:50.959Z,7.35
2023-03-01T02:43:53.693Z,8.55
2023-03-01T02:46:59.186Z,8.13
2023-03-01T02:50:01.436Z,8.10
2023-03-01T02:53:18.799Z,8.00
2023-03-01T02:56:20.915Z,8.10
2023-03-01T02:59:27.843Z,7.65
2023-03-01T03:02:38.728Z,7.62
2023-03-01T03:05:40.947Z,7.30
2023-03-01T03:08:43.028Z,8.03
2023-03-01T03:11:46.280Z,8.73
2023-03-01T03:14:48.338Z,6.85
2023-03-01T03:17:51.593Z,3.55
2023-03-01T03:20:55.404Z,7.20
2023-03-01T03:23:59.275Z,5.70
2023-03-01T03:27:01.404Z,7.05
2023-03-01T03:30:03.769Z,6.25
2023-03-01T03:33:07.008Z,5.70
2023-03-01T03:36:13.990Z,5.60
2023-03-01T03:39:16.001Z,5.70
2023-03-01T03:42:18.151Z,6.40
2023-03-01T03:45:20.419Z,7.68
2023-03-01T03:48:22.501Z,5.67
2023-03-01T03:51:24.807Z,6.37
2023-03-01T03:54:26.897Z,6.35
2023-03-01T03:57:28.907Z,7.25
2023-03-01T04:00:31.538Z,8.07
2023-03-01T04:03:36.235Z,6.33
2023-03-01T04:06:38.402Z,7.63
2023-03-01T04:09:40.474Z,6.65
2023-03-01T04:12:44.309Z,6.70
2023-03-01T04:15:55.957Z,7.03
2023-03-01T04:19:00.834Z,4.27
2023-03-01T04:22:10.435Z,4.83
2023-03-01T04:25:15.091Z,7.22
2023-03-01T04:28:17.802Z,7.87
2023-03-01T04:31:22.725Z,5.60
2023-03-01T04:34:25.102Z,6.77
2023-03-01T04:37:28.100Z,4.20
2023-03-01T04:40:32.157Z,3.80
2023-03-01T04:43:35.276Z,5.47
2023-03-01T04:46:37.387Z,6.40
2023-03-01T04:49:39.608Z,4.00
2023-03-01T04:52:42.307Z,7.40
2023-03-01T04:55:44.398Z,7.12
2023-03-01T04:58:47.566Z,8.48
2023-03-01T05:01:50.805Z,6.37
2023-03-01T05:04:53.132Z,9.53
2023-03-01T05:08:00.920Z,4.33
2023-03-01T05:11:09.993Z,5.10
2023-03-01T05:14:12.301Z,6.00
2023-03-01T05:17:14.378Z,4.85
2023-03-01T05:20:17.571Z,5.27
2023-03-01T05:23:20.061Z,8.10
2023-03-01T05:26:28.260Z,9.00
2023-03-01T05:29:35.918Z,4.05
2023-03-01T05:32:37.993Z,6.03
2023-03-01T05:35:44.504Z,5.37
2023-03-01T05:38:46.627Z,9.30
2023-03-01T05:41:49.165Z,5.85
2023-03-01T05:44:51.223Z,7.70
2023-03-01T05:47:56.112Z,6.35
2023-03-01T05:51:01.734Z,8.47
2023-03-01T05:54:07.035Z,8.07
2023-03-01T05:57:09.081Z,8.27
2023-03-01T06:00:12.983Z,8.93
2023-03-01T06:03:18.179Z,7.30
2023-03-01T06:06:20.406Z,5.67
2023-03-01T06:09:22.613Z,8.07
2023-03-01T06:12:25.093Z,7.87
2023-03-01T06:15:27.290Z,5.97
2023-03-01T06:18:29.256Z,8.60
2023-03-01T06:21:31.628Z,4.30
2023-03-01T06:24:34.296Z,7.70
2023-03-01T06:27:36.498Z,10.02
2023-03-01T06:30:39.842Z,8.68
2023-03-01T06:33:42.057Z,9.77
2023-03-01T06:36:44.168Z,10.80
2023-03-01T06:39:46.331Z,10.40
2023-03-01T06:42:52.123Z,9.40
2023-03-01T06:45:54.201Z,6.03
2023-03-01T06:48:56.484Z,7.62
2023-03-01T06:51:58.940Z,9.30
2023-03-01T06:55:02.872Z,3.47
2023-03-01T06:58:05.092Z,4.70
2023-03-01T07:01:09.998Z,8.90
2023-03-01T07:04:14.131Z,7.85
2023-03-01T07:07:16.360Z,5.57
2023-03-01T07:10:21.636Z,9.63
2023-03-01T07:13:24.597Z,8.95
2023-03-01T07:16:26.951Z,5.60
2023-03-01T07:19:29.446Z,5.78
2023-03-01T07:22:31.601Z,4.37
2023-03-01T07:25:34.043Z,5.13
2023-03-01T07:28:39.303Z,6.85
2023-03-01T07:31:41.743Z,6.85
2023-03-01T07:34:43.778Z,5.72
2023-03-01T07:37:45.943Z,7.37
2023-03-01T07:40:49.159Z,5.67
2023-03-01T07:43:51.326Z,5.15
2023-03-01T07:46:57.426Z,7.32
2023-03-01T07:50:00.110Z,6.03
2023-03-01T07:53:02.293Z,3.37
2023-03-01T07:56:06.600Z,7.23
2023-03-01T07:59:09.109Z,7.22
2023-03-01T08:02:12.107Z,5.65
2023-03-01T08:05:14.482Z,7.20
2023-03-01T08:08:17.510Z,6.50
2023-03-01T08:11:20.414Z,6.90
2023-03-01T08:14:22.459Z,5.37
2023-03-01T08:17:24.656Z,3.58
2023-03-01T08:20:27.114Z,5.82
2023-03-01T08:23:29.199Z,2.23
2023-03-01T08:26:31.894Z,3.73
2023-03-01T08:29:34.750Z,5.05
2023-03-01T08:32:41.103Z,1.83
2023-03-01T08:35:43.180Z,2.67
2023-03-01T08:38:45.400Z,2.23
2023-03-01T08:41:48.411Z,3.20
2023-03-01T08:44:50.471Z,3.08
2023-03-01T08:47:55.331Z,5.85
2023-03-01T08:51:07.602Z,5.82
2023-03-01T08:54:16.451Z,4.93
2023-03-01T08:57:19.021Z,4.30
2023-03-01T09:00:23.331Z,4.60
2023-03-01T09:03:26.368Z,6.43
2023-03-01T09:06:32.308Z,4.47
2023-03-01T09:09:34.539Z,7.73
2023-03-01T09:12:36.682Z,5.10
2023-03-01T09:15:39.511Z,3.90
2023-03-01T09:18:41.898Z,4.37
2023-03-01T09:21:53.193Z,6.43
2023-03-01T09:24:55.310Z,6.47
2023-03-01T09:27:57.386Z,5.53
2023-03-01T09:31:01.666Z,5.68
2023-03-01T09:34:03.770Z,6.95
2023-03-01T09:37:05.907Z,5.75
2023-03-01T09:40:16.745Z,8.10
2023-03-01T09:43:39.776Z,8.43
2023-03-01T09:46:44.835Z,6.22
2023-03-01T09:50:09.468Z,8.02
2023-03-01T09:53:27.731Z,6.70
2023-03-01T09:56:44.319Z,9.37
2023-03-01T09:59:58.532Z,5.13
2023-03-01T10:03:26.757Z,7.12
2023-03-01T10:06:35.308Z,7.40
2023-03-01T10:09:41.203Z,7.47
2023-03-01T10:12:45.808Z,4.87
2023-03-01T10:16:03.116Z,4.17
2023-03-01T10:19:07.775Z,6.93
2023-03-01T10:22:19.223Z,5.20
2023-03-01T10:25:45.900Z,2.83
2023-03-01T10:29:03.526Z,2.03
2023-03-01T10:32:07.929Z,9.33
2023-03-01T10:35:23.046Z,2.97
2023-03-01T10:38:25.235Z,5.30
2023-03-01T10:41:29.105Z,4.75
2023-03-01T10:44:46.485Z,9.20
2023-03-01T10:48:05.227Z,8.33
2023-03-01T10:51:08.982Z,8.32
2023-03-01T10:54:37.744Z,3.65
2023-03-01T10:57:42.936Z,3.92
2023-03-01T11:00:58.401Z,5.40
2023-03-01T11:04:20.678Z,8.03
2023-03-01T11:07:22.703Z,5.43
2023-03-01T11:10:31.864Z,5.57
2023-03-01T11:13:35.587Z,6.45
2023-03-01T11:16:41.098Z,6.50
2023-03-01T11:19:46.912Z,4.77
2023-03-01T11:22:56.768Z,6.45
2023-03-01T11:26:02.876Z,7.68
2023-03-01T11:29:13.692Z,7.35
2023-03-01T11:32:16.951Z,6.43
2023-03-01T11:35:26.607Z,7.27
2023-03-01T11:38:32.072Z,3.20
2023-03-01T11:41:37.748Z,7.07
2023-03-01T11:44:43.339Z,8.52
2023-03-01T11:48:03.641Z,7.57
2023-03-01T11:51:18.169Z,7.60
2023-03-01T11:54:32.046Z,5.25
2023-03-01T11:57:59.138Z,8.55
2023-03-01T12:01:17.751Z,8.63
2023-03-01T12:04:51.638Z,4.23
2023-03-01T12:08:17.217Z,4.57
2023-03-01T12:11:55.577Z,8.27
2023-03-01T12:15:32.704Z,7.97
2023-03-01T12:18:52.913Z,8.50
2023-03-01T12:22:05.586Z,7.57
2023-03-01T12:25:31.271Z,9.50
2023-03-01T12:28:53.253Z,10.02
2023-03-01T12:32:19.224Z,8.40
2023-03-01T12:35:37.251Z,11.63
2023-03-01T12:38:43.539Z,10.30
2023-03-01T12:42:10.684Z,6.80
2023-03-01T12:45:36.354Z,12.05
2023-03-01T12:48:52.131Z,11.52
2023-03-01T12:52:49.256Z,9.40
2023-03-01T12:55:53.161Z,11.60
2023-03-01T12:59:13.651Z,7.47
2023-03-01T13:02:27.793Z,7.35
2023-03-01T13:05:29.901Z,11.75
2023-03-01T13:08:44.093Z,13.25
2023-03-01T13:11:46.604Z,4.93
2023-03-01T13:14:48.776Z,9.07
2023-03-01T13:18:26.603Z,6.35
2023-03-01T13:21:32.583Z,9.27
2023-03-01T13:24:40.053Z,9.68
2023-03-01T13:27:42.498Z,6.23
2023-03-01T13:30:46.434Z,4.40
2023-03-01T13:33:59.483Z,5.28
2023-03-01T13:37:20.698Z,10.88
2023-03-01T13:40:23.711Z,5.20
2023-03-01T13:43:34.024Z,10.87
2023-03-01T13:46:36.921Z,7.77
2023-03-01T13:49:48.127Z,7.10
2023-03-01T13:53:00.263Z,5.93
2023-03-01T13:56:20.752Z,11.25
2023-03-01T13:59:23.834Z,7.90
2023-03-01T14:02:25.994Z,10.10
2023-03-01T14:05:28.244Z,10.50
2023-03-01T14:08:32.489Z,8.68
2023-03-01T14:12:12.219Z,7.97
2023-03-01T14:15:28.556Z,6.03
2023-03-01T14:18:45.005Z,5.93
2023-03-01T14:21:48.031Z,6.05
2023-03-01T14:24:57.511Z,8.63
2023-03-01T14:28:05.867Z,7.50
2023-03-01T14:31:38.442Z,7.30
2023-03-01T14:34:48.299Z,7.97
2023-03-01T14:37:50.987Z,9.63
2023-03-01T14:40:59.547Z,4.22
2023-03-01T14:44:06.291Z,11.05
2023-03-01T14:47:16.876Z,6.07
2023-03-01T14:50:33.903Z,10.67
2023-03-01T14:53:50.111Z,8.55
2023-03-01T14:56:54.672Z,7.10
2023-03-01T15:00:01.991Z,10.15
2023-03-01T15:03:14.523Z,10.70
2023-03-01T15:06:20.518Z,10.17
2023-03-01T15:09:23.854Z,10.35
2023-03-01T15:12:29.417Z,8.30
2023-03-01T15:15:37.523Z,8.57
2023-03-01T15:18:49.022Z,9.27
2023-03-01T15:21:51.476Z,9.10
2023-03-01T15:24:54.515Z,8.15
2023-03-01T15:27:58.736Z,5.65
2023-03-01T15:31:13.153Z,12.37
2023-03-01T15:34:41.395Z,10.40
2023-03-01T15:37:51.644Z,11.00
2023-03-01T15:40:54.852Z,10.73
2023-03-01T15:43:57.055Z,9.60
2023-03-01T15:46:59.306Z,12.55
2023-03-01T15:50:03.456Z,9.37
2023-03-01T15:53:12.318Z,6.10
2023-03-01T15:56:15.209Z,12.13
2023-03-01T15:59:18.269Z,14.57
2023-03-01T16:02:22.376Z,14.00
2023-03-01T16:05:30.217Z,12.63
2023-03-01T16:08:32.430Z,13.40
2023-03-01T16:11:37.892Z,12.40
2023-03-01T16:14:40.552Z,13.82
2023-03-01T16:17:42.857Z,14.02
2023-03-01T16:20:49.426Z,15.20
2023-03-01T16:23:52.729Z,12.97
2023-03-01T16:26:55.064Z,13.95
2023-03-01T16:29:57.211Z,15.52
2023-03-01T16:32:59.652Z,13.00
2023-03-01T16:36:09.372Z,14.30
2023-03-01T16:39:11.775Z,14.97
2023-03-01T16:42:14.483Z,13.00
2023-03-01T16:45:25.387Z,12.63
2023-03-01T16:48:29.238Z,14.20
2023-03-01T16:51:34.179Z,15.10
2023-03-01T16:54:38.534Z,15.67
2023-03-01T16:57:42.575Z,13.25
2023-03-01T17:00:48.858Z,13.80
2023-03-01T17:03:53.493Z,13.95
2023-03-01T17:06:57.845Z,13.10
2023-03-01T17:10:02.933Z,14.63
2023-03-01T17:13:07.430Z,14.02
2023-03-01T17:16:16.267Z,14.25
2023-03-01T17:19:20.162Z,12.73
2023-03-01T17:22:22.439Z,12.90
2023-03-01T17:25:24.834Z,14.07
2023-03-01T17:28:30.439Z,13.50
2023-03-01T17:31:34.727Z,11.12
2023-03-01T17:34:38.697Z,12.25
2023-03-01T17:37:47.548Z,13.97
2023-03-01T17:40:51.844Z,14.13
2023-03-01T17:43:54.894Z,14.13
2023-03-01T17:46:57.437Z,16.37
2023-03-01T17:50:01.033Z,17.33
2023-03-01T17:53:09.782Z,16.57
2023-03-01T17:56:13.365Z,18.33
2023-03-01T17:59:17.798Z,19.00
2023-03-01T18:02:21.011Z,19.77
2023-03-01T18:05:24.269Z,17.75
2023-03-01T18:08:27.084Z,18.83
2023-03-01T18:11:30.536Z,20.17
2023-03-01T18:14:34.552Z,20.00
2023-03-01T18:17:37.058Z,25.70
2023-03-01T18:20:40.537Z,22.52
2023-03-01T18:23:44.780Z,21.50
2023-03-01T18:26:47.536Z,20.73
2023-03-01T18:29:50.324Z,18.10
2023-03-01T18:32:56.774Z,16.37
2023-03-01T18:35:59.806Z,13.65
2023-03-01T18:39:05.792Z,18.23
2023-03-01T18:42:10.062Z,18.37
2023-03-01T18:45:14.795Z,14.85
2023-03-01T18:48:17.676Z,18.12
2023-03-01T18:51:24.290Z,17.15
2023-03-01T18:54:28.834Z,12.70
2023-03-01T18:57:31.831Z,14.83
2023-03-01T19:00:36.412Z,14.27
2023-03-01T19:03:40.605Z,14.95
2023-03-01T19:06:43.375Z,11.25
2023-03-01T19:09:46.426Z,11.80
2023-03-01T19:12:49.621Z,9.67
2023-03-01T19:15:53.386Z,14.25
2023-03-01T19:19:00.111Z,12.37
2023-03-01T19:22:06.064Z,15.05
2023-03-01T19:25:09.360Z,14.80
2023-03-01T19:28:11.939Z,15.83
2023-03-01T19:31:21.654Z,13.48
2023-03-01T19:34:26.141Z,14.63
2023-03-01T19:37:30.300Z,11.43
2023-03-01T19:40:33.909Z,12.97
2023-03-01T19:43:37.302Z,12.47
2023-03-01T19:46:40.688Z,12.95
2023-03-01T19:49:43.905Z,15.38
2023-03-01T19:52:47.005Z,13.52
2023-03-01T19:55:53.250Z,13.10
2023-03-01T19:59:00.988Z,11.87
2023-03-01T20:02:04.708Z,12.70
2023-03-01T20:05:08.474Z,12.18
2023-03-01T20:08:12.646Z,12.50
2023-03-01T20:11:18.041Z,12.43
2023-03-01T20:14:23.907Z,13.07
2023-03-01T20:17:27.286Z,11.85
2023-03-01T20:20:30.684Z,10.73
2023-03-01T20:23:33.550Z,10.07
2023-03-01T20:26:37.410Z,7.43
2023-03-01T20:29:40.877Z,8.00
2023-03-01T20:32:47.055Z,8.15
2023-03-01T20:35:52.066Z,12.48
2023-03-01T20:38:55.495Z,9.68
2023-03-01T20:41:58.171Z,4.97
2023-03-01T20:45:01.293Z,4.37
2023-03-01T20:48:04.446Z,12.23
2023-03-01T20:51:10.003Z,12.20
2023-03-01T20:54:12.842Z,10.10
2023-03-01T20:57:16.815Z,11.63
2023-03-01T21:00:19.819Z,11.57
2023-03-01T21:03:22.947Z,11.75
2023-03-01T21:06:25.947Z,12.30
2023-03-01T21:09:28.479Z,11.95
2023-03-01T21:12:31.199Z,11.80
2023-03-01T21:15:33.478Z,11.60
2023-03-01T21:18:37.054Z,11.35
2023-03-01T21:21:39.226Z,12.27
2023-03-01T21:24:42.507Z,12.15
2023-03-01T21:27:44.806Z,9.80
2023-03-01T21:30:47.114Z,11.20
2023-03-01T21:33:54.349Z,12.32
2023-03-01T21:36:56.514Z,11.55
2023-03-01T21:39:58.608Z,10.95
2023-03-01T21:43:00.886Z,13.37
2023-03-01T21:46:08.839Z,12.23
2023-03-01T21:49:11.343Z,12.80
2023-03-01T21:52:16.919Z,12.05
2023-03-01T21:55:19.131Z,12.30
2023-03-01T21:58:21.390Z,13.10
2023-03-01T22:01:26.148Z,12.20
2023-03-01T22:04:28.305Z,12.88
2023-03-01T22:07:30.989Z,12.40
2023-03-01T22:10:34.471Z,12.43
2023-03-01T22:13:36.532Z,15.27
2023-03-01T22:16:40.386Z,16.33
2023-03-01T22:19:42.885Z,17.75
2023-03-01T22:22:44.936Z,16.08
2023-03-01T22:25:47.208Z,15.48
2023-03-01T22:28:49.661Z,13.50
2023-03-01T22:31:53.275Z,10.90
2023-03-01T22:34:55.424Z,13.25
2023-03-01T22:37:57.545Z,12.82
2023-03-01T22:41:02.347Z,11.07
2023-03-01T22:44:04.735Z,12.27
2023-03-01T22:47:06.735Z,12.60
2023-03-01T22:50:13.109Z,12.68
2023-03-01T22:53:15.782Z,12.98
2023-03-01T22:56:21.251Z,12.00
2023-03-01T22:59:24.114Z,12.60
2023-03-01T23:02:26.435Z,12.00
2023-03-01T23:05:28.795Z,10.68
2023-03-01T23:08:31.060Z,9.85
2023-03-01T23:11:36.046Z,10.00
2023-03-01T23:14:39.383Z,10.53
2023-03-01T23:17:41.480Z,8.00
2023-03-01T23:20:43.623Z,8.10
2023-03-01T23:23:49.732Z,8.25
2023-03-01T23:26:53.511Z,8.38
2023-03-01T23:29:55.579Z,7.40
2023-03-01T23:33:00.268Z,7.60
2023-03-01T23:36:03.046Z,9.93
2023-03-01T23:39:07.977Z,9.75
2023-03-01T23:42:10.262Z,6.15
2023-03-01T23:45:12.915Z,9.00
2023-03-01T23:48:15.369Z,9.17
2023-03-01T23:51:18.449Z,7.53
2023-03-01T23:54:23.330Z,9.32
2023-03-01T23:57:25.430Z,9.40
